createdAt,value
2019-04-21T00:01:48.989Z,11.35
2019-04-21T00:04:31.818Z,13.18
2019-04-21T00:07:08.746Z,13.45
2019-04-21T00:09:50.568Z,12.13
2019-04-21T00:12:15.347Z,16.87
2019-04-21T00:14:39.740Z,14.23
2019-04-21T00:17:07.811Z,15.30
2019-04-21T00:19:43.002Z,13.45
2019-04-21T00:22:26.124Z,12.93
2019-04-21T00:25:04.381Z,16.80
2019-04-21T00:27:33.778Z,16.87
2019-04-21T00:30:10.953Z,14.35
2019-04-21T00:32:38.141Z,17.32
2019-04-21T00:35:01.646Z,15.68
2019-04-21T00:37:45.399Z,16.93
2019-04-21T00:40:24.031Z,16.17
2019-04-21T00:42:48.918Z,18.90
2019-04-21T00:45:20.710Z,17.90
2019-04-21T00:47:58.715Z,19.02
2019-04-21T00:50:40.406Z,19.73
2019-04-21T00:53:32.061Z,16.90
2019-04-21T00:56:00.106Z,17.73
2019-04-21T01:00:58.082Z,16.80
2019-04-21T01:03:32.374Z,18.10
2019-04-21T01:06:08.245Z,15.93
2019-04-21T01:08:35.677Z,16.93
2019-04-21T01:11:11.359Z,16.77
2019-04-21T01:13:41.669Z,17.92
2019-04-21T01:16:14.702Z,19.37
2019-04-21T01:18:48.313Z,16.57
2019-04-21T01:20:53.293Z,15.75
2019-04-21T01:23:25.480Z,15.15
2019-04-21T01:26:06.818Z,15.43
2019-04-21T01:28:45.134Z,15.53
2019-04-21T01:31:21.374Z,15.63
2019-04-21T01:33:59.088Z,13.83
2019-04-21T01:36:25.796Z,15.55
2019-04-21T01:39:03.458Z,13.22
2019-04-21T01:41:31.469Z,12.68
2019-04-21T01:43:55.584Z,14.70
2019-04-21T01:46:27.263Z,13.35
2019-04-21T01:48:58.074Z,14.07
2019-04-21T01:51:28.408Z,14.05
2019-04-21T01:54:22.202Z,12.53
2019-04-21T01:56:55.485Z,15.75
2019-04-21T01:59:30.486Z,16.20
2019-04-21T02:02:11.000Z,12.00
2019-04-21T02:04:47.435Z,14.03
2019-04-21T02:07:15.059Z,14.00
2019-04-21T02:09:46.365Z,16.82
2019-04-21T02:12:20.483Z,12.78
2019-04-21T02:14:58.185Z,11.30
2019-04-21T02:17:16.315Z,12.93
2019-04-21T02:19:48.050Z,18.05
2019-04-21T02:22:27.425Z,15.28
2019-04-21T02:24:56.798Z,15.20
2019-04-21T02:27:23.487Z,16.67
2019-04-21T02:30:03.461Z,15.32
2019-04-21T02:32:43.876Z,15.38
2019-04-21T02:35:22.495Z,15.55
2019-04-21T02:37:53.562Z,15.88
2019-04-21T02:40:21.554Z,16.80
2019-04-21T02:42:55.648Z,18.35
2019-04-21T02:45:23.267Z,16.00
2019-04-21T02:50:26.506Z,17.00
2019-04-21T02:53:03.222Z,16.37
2019-04-21T02:58:06.119Z,16.02
2019-04-21T03:00:44.944Z,15.20
2019-04-21T03:03:31.693Z,16.87
2019-04-21T03:06:27.279Z,15.28
2019-04-21T03:08:45.568Z,16.95
2019-04-21T03:11:10.987Z,17.12
2019-04-21T03:13:47.148Z,15.32
2019-04-21T03:16:22.871Z,19.48
2019-04-21T03:18:52.495Z,16.73
2019-04-21T03:21:22.272Z,18.82
2019-04-21T03:26:28.219Z,19.25
2019-04-21T03:28:52.301Z,17.35
2019-04-21T03:32:05.554Z,16.12
2019-04-21T03:37:00.689Z,18.15
2019-04-21T03:38:57.314Z,17.30
2019-04-21T03:49:11.936Z,17.67
2019-04-21T03:51:35.856Z,20.30
2019-04-21T03:54:07.583Z,20.12
2019-04-21T03:56:59.200Z,17.50
2019-04-21T03:59:14.272Z,16.90
2019-04-21T04:05:08.970Z,18.12
2019-04-21T04:07:49.845Z,17.82
2019-04-21T04:10:11.770Z,17.15
2019-04-21T04:15:22.815Z,18.25
2019-04-21T04:17:46.133Z,18.40
2019-04-21T04:20:36.935Z,17.62
2019-04-21T04:22:56.241Z,17.75
2019-04-21T04:25:28.068Z,17.27
2019-04-21T04:30:31.137Z,17.67
2019-04-21T04:32:56.654Z,17.98
2019-04-21T04:35:42.398Z,18.17
2019-04-21T04:38:03.756Z,19.02
2019-04-21T04:40:51.780Z,22.02
2019-04-21T04:45:56.459Z,18.70
2019-04-21T04:48:19.477Z,18.87
2019-04-21T04:50:55.407Z,18.57
2019-04-21T04:55:54.756Z,17.17
2019-04-21T04:58:35.607Z,18.55
2019-04-21T05:01:08.671Z,19.27
2019-04-21T05:03:37.152Z,19.95
2019-04-21T05:09:13.145Z,17.35
2019-04-21T05:14:11.625Z,17.77
2019-04-21T05:24:01.253Z,17.85
2019-04-21T05:26:33.322Z,19.30
2019-04-21T05:29:01.894Z,17.35
2019-04-21T05:31:56.681Z,18.23
2019-04-21T05:34:26.922Z,17.95
2019-04-21T05:37:25.953Z,14.10
2019-04-21T05:40:15.790Z,14.75
2019-04-21T05:42:49.593Z,18.32
2019-04-21T05:45:29.696Z,15.10
2019-04-21T05:50:32.118Z,13.88
2019-04-21T05:53:18.965Z,16.90
2019-04-21T05:55:49.162Z,13.43
2019-04-21T05:58:14.629Z,12.70
2019-04-21T06:01:14.885Z,11.73
2019-04-21T06:03:30.666Z,12.35
2019-04-21T06:06:08.681Z,11.63
2019-04-21T06:08:31.308Z,11.30
2019-04-21T06:11:02.107Z,11.00
2019-04-21T06:13:43.927Z,10.20
2019-04-21T06:16:27.798Z,10.72
2019-04-21T06:18:42.081Z,10.10
2019-04-21T06:21:25.125Z,10.90
2019-04-21T06:24:09.117Z,10.20
2019-04-21T06:26:42.730Z,12.73
2019-04-21T06:28:49.088Z,10.63
2019-04-21T06:31:26.939Z,10.30
2019-04-21T06:33:50.820Z,10.35
2019-04-21T06:36:36.162Z,9.68
2019-04-21T06:41:34.371Z,8.33
2019-04-21T06:44:08.206Z,9.40
2019-04-21T06:46:44.724Z,11.30
2019-04-21T06:49:03.082Z,9.18
2019-04-21T06:51:38.942Z,9.40
2019-04-21T06:54:09.614Z,11.05
2019-04-21T06:59:13.496Z,9.88
2019-04-21T07:01:48.762Z,10.75
2019-04-21T07:04:39.561Z,8.48
2019-04-21T07:06:56.338Z,7.08
2019-04-21T07:09:25.472Z,7.40
2019-04-21T07:11:52.050Z,5.60
2019-04-21T07:19:35.163Z,5.57
2019-04-21T07:21:59.220Z,6.23
2019-04-21T07:24:35.496Z,4.97
2019-04-21T07:27:02.631Z,5.53
2019-04-21T07:29:47.395Z,6.00
2019-04-21T07:32:20.972Z,3.73
2019-04-21T07:35:00.315Z,5.50
2019-04-21T07:37:25.567Z,7.10
2019-04-21T07:39:54.575Z,11.60
2019-04-21T07:42:26.732Z,5.33
2019-04-21T07:44:55.353Z,6.73
2019-04-21T07:47:43.267Z,5.92
2019-04-21T07:50:22.652Z,5.53
2019-04-21T07:53:08.475Z,5.35
2019-04-21T07:58:02.595Z,4.83
2019-04-21T08:00:45.072Z,6.28
2019-04-21T08:03:08.115Z,5.35
2019-04-21T08:05:59.178Z,5.45
2019-04-21T08:08:12.157Z,4.30
2019-04-21T08:10:52.589Z,7.08
2019-04-21T08:13:29.492Z,4.87
2019-04-21T08:15:58.288Z,5.03
2019-04-21T08:18:28.362Z,4.50
2019-04-21T08:21:00.776Z,4.90
2019-04-21T08:23:31.478Z,5.25
2019-04-21T08:26:22.678Z,8.48
2019-04-21T08:31:10.257Z,3.92
2019-04-21T08:36:20.833Z,4.20
2019-04-21T08:38:40.275Z,4.00
2019-04-21T08:41:15.506Z,4.03
2019-04-21T08:46:20.139Z,4.08
2019-04-21T08:48:50.805Z,4.78
2019-04-21T08:51:30.249Z,3.77
2019-04-21T08:53:53.586Z,3.97
2019-04-21T08:56:34.162Z,4.60
2019-04-21T08:59:19.174Z,3.47
2019-04-21T09:02:23.554Z,2.42
2019-04-21T09:04:52.791Z,2.85
2019-04-21T09:07:39.526Z,2.52
2019-04-21T09:09:57.446Z,3.45
2019-04-21T09:12:29.475Z,3.33
2019-04-21T09:15:03.312Z,3.15
2019-04-21T09:17:28.410Z,6.70
2019-04-21T09:20:13.964Z,3.08
2019-04-21T09:22:38.244Z,4.33
2019-04-21T09:25:09.155Z,3.60
2019-04-21T09:27:36.775Z,4.33
2019-04-21T09:29:57.615Z,3.05
2019-04-21T09:32:29.127Z,4.65
2019-04-21T09:35:05.677Z,5.90
2019-04-21T09:37:43.494Z,4.67
2019-04-21T09:40:04.928Z,5.62
2019-04-21T09:42:42.147Z,4.85
2019-04-21T09:45:09.989Z,5.10
2019-04-21T09:47:47.060Z,3.95
2019-04-21T09:50:12.097Z,4.65
2019-04-21T09:52:54.207Z,4.85
2019-04-21T09:55:21.537Z,3.80
2019-04-21T09:57:55.319Z,4.65
2019-04-21T10:00:24.782Z,6.60
2019-04-21T10:02:59.949Z,4.90
2019-04-21T10:05:22.825Z,4.33
2019-04-21T10:07:53.153Z,5.33
2019-04-21T10:10:23.233Z,3.95
2019-04-21T10:12:53.971Z,4.60
2019-04-21T10:15:26.274Z,6.08
2019-04-21T10:17:58.432Z,4.47
2019-04-21T10:20:28.590Z,5.08
2019-04-21T10:22:59.456Z,5.30
2019-04-21T10:25:30.501Z,4.40
2019-04-21T10:28:03.281Z,5.15
2019-04-21T10:30:36.762Z,4.87
2019-04-21T10:33:08.337Z,4.85
2019-04-21T10:35:41.348Z,5.40
2019-04-21T10:38:22.737Z,5.00
2019-04-21T10:40:45.560Z,5.53
2019-04-21T10:43:18.947Z,5.12
2019-04-21T10:45:46.874Z,8.33
2019-04-21T10:48:16.865Z,5.60
2019-04-21T10:50:49.398Z,5.05
2019-04-21T10:53:31.252Z,5.15
2019-04-21T10:56:12.200Z,4.30
2019-04-21T10:58:36.178Z,7.75
2019-04-21T11:01:31.597Z,9.13
2019-04-21T11:04:19.562Z,5.90
2019-04-21T11:06:42.253Z,4.75
2019-04-21T11:09:14.089Z,5.30
2019-04-21T11:11:46.469Z,5.53
2019-04-21T11:14:15.510Z,5.33
2019-04-21T11:16:47.515Z,7.30
2019-04-21T11:19:17.841Z,6.45
2019-04-21T11:21:49.198Z,6.10
2019-04-21T11:24:19.066Z,6.17
2019-04-21T11:26:49.681Z,5.90
2019-04-21T11:29:21.121Z,7.37
2019-04-21T11:31:51.329Z,8.18
2019-04-21T11:34:21.311Z,5.45
2019-04-21T11:36:52.166Z,6.03
2019-04-21T11:39:42.219Z,5.28
2019-04-21T11:42:10.083Z,4.87
2019-04-21T11:44:41.695Z,6.60
2019-04-21T11:47:22.700Z,5.33
2019-04-21T11:49:53.002Z,6.15
2019-04-21T11:52:22.893Z,6.30
2019-04-21T11:54:53.134Z,7.12
2019-04-21T11:57:28.005Z,5.80
2019-04-21T11:59:57.612Z,6.45
2019-04-21T12:02:29.766Z,5.53
2019-04-21T12:04:59.589Z,6.78
2019-04-21T12:07:35.315Z,5.75
2019-04-21T12:10:06.355Z,6.30
2019-04-21T12:12:37.146Z,5.35
2019-04-21T12:15:08.121Z,5.28
2019-04-21T12:17:39.674Z,4.60
2019-04-21T12:20:10.623Z,6.08
2019-04-21T12:22:41.231Z,4.70
2019-04-21T12:25:15.525Z,5.37
2019-04-21T12:27:45.696Z,4.75
2019-04-21T12:30:16.076Z,5.10
2019-04-21T12:32:53.912Z,4.72
2019-04-21T12:35:23.876Z,5.25
2019-04-21T12:37:55.026Z,4.50
2019-04-21T12:40:26.276Z,5.83
2019-04-21T12:42:56.790Z,4.35
2019-04-21T12:45:28.152Z,5.65
2019-04-21T12:47:58.079Z,5.33
2019-04-21T12:50:27.925Z,6.42
2019-04-21T12:52:57.835Z,4.65
2019-04-21T12:55:31.619Z,4.55
2019-04-21T12:58:01.409Z,4.58
2019-04-21T13:00:31.438Z,4.72
2019-04-21T13:03:03.658Z,4.70
2019-04-21T13:05:35.764Z,4.72
2019-04-21T13:08:07.073Z,4.55
2019-04-21T13:10:38.139Z,5.08
2019-04-21T13:13:08.216Z,4.37
2019-04-21T13:15:40.921Z,5.35
2019-04-21T13:18:12.457Z,4.72
2019-04-21T13:20:46.098Z,5.30
2019-04-21T13:23:18.911Z,4.45
2019-04-21T13:25:50.022Z,5.42
2019-04-21T13:28:20.777Z,6.65
2019-04-21T13:30:52.462Z,5.78
2019-04-21T13:33:22.974Z,4.22
2019-04-21T13:35:57.121Z,5.20
2019-04-21T13:38:36.378Z,5.20
2019-04-21T13:41:27.300Z,4.72
2019-04-21T13:43:43.362Z,5.40
2019-04-21T13:46:13.231Z,4.20
2019-04-21T13:48:48.710Z,4.15
2019-04-21T13:51:19.459Z,6.97
2019-04-21T13:53:49.519Z,4.55
2019-04-21T13:56:20.346Z,3.80
2019-04-21T13:58:50.488Z,4.85
2019-04-21T14:01:21.422Z,3.87
2019-04-21T14:03:53.548Z,6.20
2019-04-21T14:06:24.583Z,3.75
2019-04-21T14:08:56.907Z,4.00
2019-04-21T14:11:27.215Z,3.52
2019-04-21T14:13:58.509Z,3.87
2019-04-21T14:16:29.543Z,4.33
2019-04-21T14:18:59.629Z,4.80
2019-04-21T14:21:29.499Z,3.85
2019-04-21T14:24:01.269Z,3.75
2019-04-21T14:26:32.143Z,3.92
2019-04-21T14:29:03.609Z,4.55
2019-04-21T14:31:34.663Z,2.80
2019-04-21T14:34:06.000Z,3.85
2019-04-21T14:36:37.031Z,4.28
2019-04-21T14:39:12.832Z,3.42
2019-04-21T14:41:43.958Z,3.45
2019-04-21T14:44:15.154Z,3.30
2019-04-21T14:47:05.008Z,4.85
2019-04-21T14:49:53.195Z,4.45
2019-04-21T14:52:26.801Z,4.85
2019-04-21T14:55:12.191Z,4.05
2019-04-21T14:57:43.148Z,4.03
2019-04-21T15:00:15.356Z,5.35
2019-04-21T15:02:45.546Z,6.45
2019-04-21T15:05:15.701Z,4.00
2019-04-21T15:07:45.553Z,4.50
2019-04-21T15:10:20.821Z,4.75
2019-04-21T15:12:47.739Z,5.25
2019-04-21T15:15:18.100Z,4.78
2019-04-21T15:17:49.204Z,6.05
2019-04-21T15:20:20.212Z,4.90
2019-04-21T15:22:50.872Z,4.65
2019-04-21T15:25:21.916Z,5.95
2019-04-21T15:27:54.864Z,4.90
2019-04-21T15:30:26.858Z,4.15
2019-04-21T15:32:58.018Z,5.08
2019-04-21T15:35:28.996Z,4.08
2019-04-21T15:38:00.021Z,4.95
2019-04-21T15:40:41.766Z,4.80
2019-04-21T15:43:04.393Z,4.53
2019-04-21T15:45:34.940Z,5.62
2019-04-21T15:48:04.947Z,4.65
2019-04-21T15:50:35.685Z,7.95
2019-04-21T15:53:09.720Z,7.72
2019-04-21T15:55:57.542Z,4.15
2019-04-21T15:58:43.407Z,5.65
2019-04-21T16:01:40.903Z,3.85
2019-04-21T16:04:10.886Z,4.65
2019-04-21T16:06:41.561Z,4.80
2019-04-21T16:09:14.986Z,4.65
2019-04-21T16:11:44.042Z,4.37
2019-04-21T16:14:14.510Z,4.97
2019-04-21T16:16:45.468Z,5.40
2019-04-21T16:19:16.476Z,5.10
2019-04-21T16:21:46.633Z,3.90
2019-04-21T16:24:16.501Z,3.87
2019-04-21T16:26:46.860Z,5.97
2019-04-21T16:29:17.400Z,4.25
2019-04-21T16:31:47.227Z,4.28
2019-04-21T16:34:19.847Z,4.65
2019-04-21T16:36:55.871Z,4.83
2019-04-21T16:39:27.327Z,4.40
2019-04-21T16:42:00.308Z,5.58
2019-04-21T16:44:31.308Z,5.55
2019-04-21T16:47:01.429Z,5.37
2019-04-21T16:49:31.800Z,4.00
2019-04-21T16:52:18.345Z,3.58
2019-04-21T16:54:51.878Z,3.50
2019-04-21T16:57:35.924Z,4.60
2019-04-21T17:00:13.812Z,5.90
2019-04-21T17:02:46.446Z,4.85
2019-04-21T17:05:16.358Z,4.33
2019-04-21T17:07:47.133Z,4.22
2019-04-21T17:10:18.655Z,4.92
2019-04-21T17:12:51.309Z,6.12
2019-04-21T17:15:38.393Z,4.95
2019-04-21T17:18:10.215Z,4.28
2019-04-21T17:20:37.069Z,5.60
2019-04-21T17:22:59.653Z,5.47
2019-04-21T17:25:29.906Z,4.65
2019-04-21T17:28:01.762Z,4.50
2019-04-21T17:30:32.572Z,5.80
2019-04-21T17:33:03.557Z,3.98
2019-04-21T17:35:35.145Z,5.45
2019-04-21T17:38:05.889Z,4.10
2019-04-21T17:40:35.838Z,5.03
2019-04-21T17:43:13.872Z,4.80
2019-04-21T17:45:41.408Z,4.85
2019-04-21T17:48:14.931Z,5.67
2019-04-21T17:51:01.771Z,5.03
2019-04-21T17:53:51.151Z,4.70
2019-04-21T17:56:41.379Z,4.87
2019-04-21T17:59:10.319Z,4.70
2019-04-21T18:01:45.157Z,6.60
2019-04-21T18:04:15.534Z,5.22
2019-04-21T18:06:50.191Z,5.33
2019-04-21T18:09:31.550Z,5.60
2019-04-21T18:12:00.645Z,8.13
2019-04-21T18:14:13.689Z,5.55
2019-04-21T18:16:47.873Z,7.22
2019-04-21T18:19:18.836Z,6.47
2019-04-21T18:21:59.450Z,7.78
2019-04-21T18:24:35.323Z,5.55
2019-04-21T18:27:02.045Z,5.47
2019-04-21T18:29:29.708Z,7.08
2019-04-21T18:32:01.009Z,6.55
2019-04-21T18:34:55.239Z,4.80
2019-04-21T18:38:07.739Z,7.42
2019-04-21T18:40:38.927Z,8.50
2019-04-21T18:43:56.742Z,9.58
2019-04-21T18:46:39.776Z,4.33
2019-04-21T18:49:13.224Z,6.55
2019-04-21T18:52:03.595Z,6.58
2019-04-21T18:54:54.762Z,6.50
2019-04-21T18:57:19.520Z,6.22
2019-04-21T18:59:47.302Z,5.92
2019-04-21T19:02:18.990Z,6.70
2019-04-21T19:04:48.441Z,6.10
2019-04-21T19:07:37.585Z,6.50
2019-04-21T19:13:09.411Z,8.38
2019-04-21T19:15:18.286Z,8.70
2019-04-21T19:18:16.440Z,6.72
2019-04-21T19:20:34.870Z,8.90
2019-04-21T19:22:51.751Z,9.18
2019-04-21T19:25:24.081Z,7.90
2019-04-21T19:27:56.977Z,6.92
2019-04-21T19:30:36.798Z,9.45
2019-04-21T19:33:03.935Z,7.12
2019-04-21T19:35:17.321Z,8.68
2019-04-21T19:37:54.209Z,13.20
2019-04-21T19:40:37.611Z,8.50
2019-04-21T19:43:03.404Z,15.68
2019-04-21T19:45:40.900Z,15.98
2019-04-21T19:48:15.330Z,14.90
2019-04-21T19:50:51.518Z,11.08
2019-04-21T19:53:24.287Z,11.33
2019-04-21T19:55:42.321Z,8.73
2019-04-21T19:58:14.793Z,10.45
2019-04-21T20:00:48.498Z,13.18
2019-04-21T20:03:22.410Z,19.87
2019-04-21T20:06:00.919Z,17.85
2019-04-21T20:08:37.571Z,12.43
2019-04-21T20:11:18.282Z,13.28
2019-04-21T20:14:14.113Z,10.25
2019-04-21T20:16:19.178Z,9.85
2019-04-21T20:18:39.761Z,11.88
2019-04-21T20:21:04.053Z,13.05
2019-04-21T20:23:35.937Z,11.40
2019-04-21T20:26:11.501Z,12.73
2019-04-21T20:28:48.939Z,13.85
2019-04-21T20:31:30.110Z,14.78
2019-04-21T20:34:21.216Z,15.13
2019-04-21T20:36:53.723Z,14.18
2019-04-21T20:39:13.926Z,16.70
2019-04-21T20:41:56.245Z,16.60
2019-04-21T20:44:32.578Z,14.47
2019-04-21T20:47:03.927Z,19.05
2019-04-21T20:49:37.585Z,17.30
2019-04-21T20:54:48.205Z,22.00
2019-04-21T20:57:24.197Z,20.65
2019-04-21T20:59:59.775Z,24.60
2019-04-21T21:02:36.306Z,25.25
2019-04-21T21:04:57.185Z,22.48
2019-04-21T21:07:45.826Z,22.07
2019-04-21T21:10:19.679Z,23.60
2019-04-21T21:15:10.098Z,24.30
2019-04-21T21:18:01.438Z,27.17
2019-04-21T21:20:26.151Z,28.30
2019-04-21T21:22:55.780Z,26.17
2019-04-21T21:25:40.079Z,25.32
2019-04-21T21:27:58.206Z,21.93
2019-04-21T21:30:36.219Z,19.80
2019-04-21T21:33:12.798Z,20.23
2019-04-21T21:35:37.946Z,18.10
2019-04-21T21:38:19.953Z,16.37
2019-04-21T21:40:47.992Z,15.85
2019-04-21T21:43:08.143Z,14.50
2019-04-21T21:45:42.592Z,15.75
2019-04-21T21:48:23.217Z,16.65
2019-04-21T21:50:45.921Z,17.92
2019-04-21T21:53:16.476Z,19.85
2019-04-21T21:55:42.631Z,18.02
2019-04-21T21:58:14.290Z,17.62
2019-04-21T22:00:49.945Z,16.35
2019-04-21T22:03:25.423Z,16.20
2019-04-21T22:05:57.296Z,15.58
2019-04-21T22:08:20.694Z,17.32
2019-04-21T22:10:50.877Z,19.23
2019-04-21T22:13:27.039Z,18.07
2019-04-21T22:15:59.469Z,17.45
2019-04-21T22:18:40.911Z,18.73
2019-04-21T22:21:07.626Z,20.37
2019-04-21T22:23:42.577Z,20.70
2019-04-21T22:25:57.757Z,17.85
2019-04-21T22:28:27.683Z,18.45
2019-04-21T22:30:58.643Z,15.72
2019-04-21T22:33:33.309Z,18.62
2019-04-21T22:36:09.997Z,12.93
2019-04-21T22:38:50.952Z,16.73
2019-04-21T22:41:15.686Z,18.12
2019-04-21T22:43:40.609Z,18.77
2019-04-21T22:46:07.248Z,15.80
2019-04-21T22:48:38.713Z,16.00
2019-04-21T22:51:19.212Z,17.52
2019-04-21T22:53:44.805Z,19.27
2019-04-21T22:56:18.495Z,16.60
2019-04-21T22:58:44.824Z,15.90
2019-04-21T23:01:18.980Z,14.47
2019-04-21T23:03:53.595Z,13.88
2019-04-21T23:06:23.371Z,14.60
2019-04-21T23:08:51.214Z,14.07
2019-04-21T23:11:21.541Z,12.20
2019-04-21T23:13:59.010Z,13.88
2019-04-21T23:16:27.060Z,12.80
2019-04-21T23:19:17.260Z,12.88
2019-04-21T23:21:51.237Z,12.68
2019-04-21T23:24:22.179Z,13.03
2019-04-21T23:26:50.745Z,13.30
2019-04-21T23:29:33.456Z,15.28
2019-04-21T23:31:57.950Z,12.70
2019-04-21T23:34:10.839Z,14.93
2019-04-21T23:36:49.631Z,14.28
2019-04-21T23:39:16.028Z,14.40
2019-04-21T23:41:50.408Z,14.03
2019-04-21T23:44:17.216Z,13.30
2019-04-21T23:46:45.907Z,12.10
2019-04-21T23:49:31.932Z,12.85
2019-04-21T23:51:54.669Z,12.75
2019-04-21T23:54:19.553Z,13.30
2019-04-21T23:56:49.710Z,12.33
2019-04-21T23:59:20.617Z,10.25
